This is the latest recevied weather packets stored in our database for station/object LKPJ. If no packets are shown the sender has not sent any weather packets the latest 1 day(s).
| Time | Temp. | Humidity | Pressure | Rain* | Wind** | Luminosity | Snow |
|---|---|---|---|---|---|---|---|
| 1778142783 | 16.67° C | 59% | 1011 hPa | - | - | - | - |
| 1778141884 | 16.67° C | 59% | 1011 hPa | - | - | - | - |
| 1778140983 | 16.67° C | 59% | 1011 hPa | - | - | - | - |
| 1778139183 | 16.67° C | 59% | 1010 hPa | - | - | - | - |
| 1778138284 | 16.67° C | 59% | 1010 hPa | - | - | - | - |
| 1778137383 | 16.67° C | 59% | 1010 hPa | - | - | - | - |
| 1778136484 | 15.56° C | 67% | 1010 hPa | - | - | - | - |
| 1778135583 | 15.56° C | 67% | 1010 hPa | - | - | - | - |
| 1778134684 | 15.56° C | 67% | 1010 hPa | - | - | - | - |
| 1778133783 | 15.56° C | 67% | 1010 hPa | - | - | - | - |
| 1778132883 | 13.89° C | 76% | 1009 hPa | - | - | - | - |
| 1778131982 | 13.89° C | 76% | 1009 hPa | - | - | - | - |
| 1778131083 | 13.89° C | 76% | 1009 hPa | - | - | - | - |
| 1778130184 | 13.89° C | 76% | 1009 hPa | - | - | - | - |
| 1778129284 | 12.78° C | 82% | 1009 hPa | - | - | - | - |
| 1778128383 | 12.78° C | 82% | 1009 hPa | - | - | - | - |
| 1778127484 | 11.67° C | 81% | 1008 hPa | - | - | - | - |
| 1778126583 | 11.67° C | 81% | 1008 hPa | - | - | - | - |
| 1778125683 | 10.56° C | 81% | 1008 hPa | - | - | - | - |
| 1778124783 | 10.56° C | 81% | 1008 hPa | - | - | - | - |
| 1778123883 | 11.67° C | 81% | 1007 hPa | - | - | - | - |
| 1778122983 | 11.67° C | 81% | 1007 hPa | - | - | - | - |
| 1778122083 | 13.89° C | 76% | 1007 hPa | - | - | - | - |
| 1778121183 | 13.89° C | 76% | 1007 hPa | - | - | - | - |
| 1778120283 | 13.89° C | 76% | 1007 hPa | - | - | - | - |
* Rain since midnight (hover to see other rain measurements)
** Current wind speed in m/s (hover to see current wind gust speed)